createdAt,value
2022-12-11T00:02:31.857Z,93526.25
2022-12-11T00:07:33.933Z,93498.25
2022-12-11T00:12:36.232Z,93503.53
2022-12-11T00:17:38.303Z,93512.50
2022-12-11T00:22:40.336Z,93503.81
2022-12-11T00:27:42.356Z,93505.38
2022-12-11T00:32:44.601Z,93512.69
2022-12-11T00:37:46.962Z,93494.63
2022-12-11T00:42:48.851Z,93499.00
2022-12-11T00:47:50.846Z,93494.47
2022-12-11T00:52:52.978Z,93490.16
2022-12-11T00:57:55.833Z,93485.00
2022-12-11T01:02:58.115Z,93446.59
2022-12-11T01:08:00.267Z,93488.94
2022-12-11T01:13:06.019Z,93444.16
2022-12-11T01:18:08.264Z,93490.66
2022-12-11T01:23:42.200Z,93500.06
2022-12-11T01:28:44.963Z,93509.56
2022-12-11T01:33:47.188Z,93501.63
2022-12-11T01:38:50.646Z,93471.31
2022-12-11T01:44:07.393Z,93507.31
2022-12-11T01:49:12.834Z,93506.22
2022-12-11T01:54:14.806Z,93505.44
2022-12-11T01:59:20.019Z,93499.22
2022-12-11T02:04:23.397Z,93494.56
2022-12-11T02:09:28.429Z,93458.81
2022-12-11T02:14:43.547Z,93505.69
2022-12-11T02:20:04.195Z,93491.97
2022-12-11T02:25:25.681Z,93486.84
2022-12-11T02:30:27.783Z,93480.28
2022-12-11T02:35:39.213Z,93472.34
2022-12-11T02:40:43.193Z,93471.41
2022-12-11T02:46:18.407Z,93477.47
2022-12-11T02:51:25.410Z,93453.53
2022-12-11T02:56:33.979Z,93451.22
2022-12-11T03:01:36.110Z,93443.56
2022-12-11T03:06:44.588Z,93388.03
2022-12-11T03:11:46.898Z,93438.59
2022-12-11T03:17:00.604Z,93430.66
2022-12-11T03:22:24.146Z,93424.28
2022-12-11T03:28:11.825Z,93418.34
2022-12-11T03:33:24.087Z,93409.16
2022-12-11T03:38:31.505Z,93395.94
2022-12-11T03:43:33.575Z,93374.88
2022-12-11T03:48:40.782Z,93370.56
2022-12-11T03:53:44.136Z,93344.88
2022-12-11T03:58:46.160Z,93309.13
2022-12-11T04:04:58.762Z,93345.03
2022-12-11T04:10:00.840Z,93322.91
2022-12-11T04:15:02.756Z,93310.59
2022-12-11T04:20:24.341Z,93294.25
2022-12-11T04:25:26.327Z,93287.41
2022-12-11T04:30:33.924Z,93275.09
2022-12-11T04:35:36.574Z,93259.84
2022-12-11T04:40:38.628Z,93236.81
2022-12-11T04:45:40.512Z,93179.19
2022-12-11T04:50:44.043Z,93212.97
2022-12-11T04:55:46.011Z,93210.47
2022-12-11T05:00:47.885Z,93210.19
2022-12-11T05:05:51.901Z,93199.81
2022-12-11T05:10:58.137Z,93155.75
2022-12-11T05:16:00.534Z,93162.22
2022-12-11T05:21:07.941Z,93158.47
2022-12-11T05:26:16.024Z,93140.59
2022-12-11T05:32:27.411Z,93122.66
2022-12-11T05:37:29.574Z,93104.78
2022-12-11T05:42:31.652Z,93103.22
2022-12-11T05:48:43.455Z,93110.22
2022-12-11T05:53:47.439Z,93120.00
2022-12-11T05:58:50.335Z,93078.53
2022-12-11T06:03:53.872Z,93109.19
2022-12-11T06:08:57.440Z,93087.19
2022-12-11T06:14:01.018Z,93088.69
2022-12-11T06:19:03.427Z,93115.31
2022-12-11T06:24:05.870Z,93120.16
2022-12-11T06:29:12.538Z,93116.41
2022-12-11T06:34:15.049Z,93098.78
2022-12-11T06:39:17.113Z,93073.28
2022-12-11T06:44:57.617Z,93058.47
2022-12-11T06:49:59.613Z,93017.84
2022-12-11T06:55:01.691Z,93052.63
2022-12-11T07:00:04.784Z,93041.16
2022-12-11T07:05:07.342Z,93068.03
2022-12-11T07:10:09.951Z,93060.44
2022-12-11T07:15:12.330Z,93072.88
2022-12-11T07:20:14.725Z,93062.28
2022-12-11T07:25:16.934Z,93053.44
2022-12-11T07:30:20.353Z,93067.72
2022-12-11T07:35:22.953Z,93087.78
2022-12-11T07:40:25.619Z,93108.66
2022-12-11T07:45:28.059Z,93070.03
2022-12-11T07:50:35.122Z,93070.53
2022-12-11T07:55:40.201Z,93080.03
2022-12-11T08:00:45.117Z,93080.03
2022-12-11T08:06:56.627Z,93090.50
2022-12-11T08:11:58.706Z,93090.53
2022-12-11T08:17:02.633Z,93079.00
2022-12-11T08:22:04.650Z,93045.19
2022-12-11T08:27:07.141Z,93095.97
2022-12-11T08:32:12.451Z,93104.44
2022-12-11T08:37:14.696Z,93109.44
2022-12-11T08:42:16.788Z,93076.97
2022-12-11T08:47:52.175Z,93072.56
2022-12-11T08:52:54.350Z,93058.94
2022-12-11T08:57:56.588Z,93092.59
2022-12-11T09:04:07.790Z,93111.28
2022-12-11T09:09:11.397Z,93123.63
2022-12-11T09:14:13.437Z,93117.91
2022-12-11T09:19:15.698Z,93120.63
2022-12-11T09:24:17.728Z,93123.88
2022-12-11T09:29:19.662Z,93118.44
2022-12-11T09:34:27.432Z,93093.78
2022-12-11T09:39:30.987Z,93124.44
2022-12-11T09:44:35.765Z,93076.34
2022-12-11T09:49:41.494Z,93128.38
2022-12-11T09:54:51.075Z,93133.78
2022-12-11T10:00:11.525Z,93122.91
2022-12-11T10:05:29.206Z,93140.97
2022-12-11T10:11:02.599Z,93141.59
2022-12-11T10:16:19.672Z,93141.59
2022-12-11T10:21:21.914Z,93141.09
2022-12-11T10:26:27.792Z,93141.38
2022-12-11T10:31:40.245Z,93134.69
2022-12-11T10:36:43.548Z,93134.31
2022-12-11T10:41:50.946Z,93093.97
2022-12-11T10:47:07.331Z,93123.06
2022-12-11T10:52:33.973Z,93113.97
2022-12-11T10:57:37.738Z,93087.09
2022-12-11T11:02:45.272Z,93105.84
2022-12-11T11:07:47.468Z,93088.91
2022-12-11T11:12:50.754Z,93090.97
2022-12-11T11:17:56.157Z,93108.44
2022-12-11T11:23:01.187Z,93112.97
2022-12-11T11:28:19.633Z,93053.25
2022-12-11T11:33:23.191Z,93048.38
2022-12-11T11:38:46.947Z,93058.75
2022-12-11T11:43:54.795Z,93034.69
2022-12-11T11:49:15.156Z,92993.34
2022-12-11T11:54:50.989Z,93036.16
2022-12-11T11:59:56.460Z,93016.50
2022-12-11T12:06:12.062Z,93017.72
2022-12-11T12:11:22.893Z,92993.41
2022-12-11T12:16:53.795Z,93019.38
2022-12-11T12:21:56.263Z,93017.38
2022-12-11T12:27:50.523Z,93002.81
2022-12-11T12:33:01.299Z,92995.28
2022-12-11T12:38:21.848Z,92996.25
2022-12-11T12:43:32.903Z,92994.19
2022-12-11T12:48:35.305Z,93006.22
2022-12-11T12:53:37.543Z,93026.00
2022-12-11T12:58:39.561Z,93000.69
2022-12-11T13:04:58.256Z,92990.31
2022-12-11T13:10:06.809Z,92979.88
2022-12-11T13:15:35.070Z,92999.56
2022-12-11T13:20:51.282Z,92999.94
2022-12-11T13:26:00.465Z,92990.84
2022-12-11T13:31:49.964Z,92971.78
2022-12-11T13:36:53.359Z,92977.44
2022-12-11T13:41:58.718Z,92986.50
2022-12-11T13:47:03.090Z,93007.22
2022-12-11T13:52:06.726Z,92993.28
2022-12-11T13:57:08.689Z,92977.03
2022-12-11T14:02:42.821Z,92993.84
2022-12-11T14:07:48.752Z,92994.94
2022-12-11T14:13:01.371Z,92959.13
2022-12-11T14:18:03.872Z,92970.28
2022-12-11T14:23:06.787Z,93010.28
2022-12-11T14:28:17.247Z,93000.47
2022-12-11T14:33:22.282Z,93008.97
2022-12-11T14:38:27.540Z,93014.50
2022-12-11T14:43:37.731Z,93024.81
2022-12-11T14:48:46.573Z,93026.13
2022-12-11T14:53:51.478Z,93000.25
2022-12-11T14:58:58.931Z,93048.13
2022-12-11T15:04:05.494Z,92987.41
2022-12-11T15:09:36.732Z,93039.81
2022-12-11T15:14:49.641Z,93040.81
2022-12-11T15:20:07.909Z,93052.66
2022-12-11T15:25:19.901Z,93006.13
2022-12-11T15:30:26.904Z,93051.56
2022-12-11T15:35:29.447Z,93055.22
2022-12-11T15:40:31.785Z,93050.03
2022-12-11T15:45:34.105Z,93064.84
2022-12-11T15:50:36.373Z,93070.16
2022-12-11T15:55:39.123Z,93057.22
2022-12-11T16:00:41.451Z,93058.44
2022-12-11T16:05:44.321Z,93070.81
2022-12-11T16:10:47.393Z,93060.31
2022-12-11T16:15:51.604Z,93081.13
2022-12-11T16:21:25.959Z,93082.50
2022-12-11T16:26:31.081Z,93089.09
2022-12-11T16:31:34.399Z,93097.38
2022-12-11T16:36:36.745Z,93108.31
2022-12-11T16:41:39.714Z,93102.66
2022-12-11T16:46:41.908Z,93119.25
2022-12-11T16:51:44.378Z,93126.59
2022-12-11T16:56:46.445Z,93119.69
2022-12-11T17:01:50.809Z,93099.78
2022-12-11T17:06:53.272Z,93129.09
2022-12-11T17:11:55.460Z,93114.50
2022-12-11T17:16:57.816Z,93143.94
2022-12-11T17:22:00.608Z,93141.59
2022-12-11T17:27:02.744Z,93152.22
2022-12-11T17:32:05.573Z,93160.28
2022-12-11T17:37:07.654Z,93166.84
2022-12-11T17:42:09.946Z,93184.00
2022-12-11T17:47:12.350Z,93174.06
2022-12-11T17:52:14.500Z,93175.44
2022-12-11T17:57:16.722Z,93182.78
2022-12-11T18:02:18.885Z,93191.63
2022-12-11T18:07:58.592Z,93198.50
2022-12-11T18:13:01.171Z,93203.16
2022-12-11T18:18:04.253Z,93199.16
2022-12-11T18:23:06.793Z,93200.50
2022-12-11T18:28:17.120Z,93213.34
2022-12-11T18:33:19.399Z,93212.44
2022-12-11T18:38:21.931Z,93208.38
2022-12-11T18:43:26.440Z,93188.72
2022-12-11T18:48:28.676Z,93234.81
2022-12-11T18:53:30.903Z,93229.72
2022-12-11T18:58:33.060Z,93243.34
2022-12-11T19:03:35.267Z,93232.03
2022-12-11T19:08:38.077Z,93260.16
2022-12-11T19:13:40.381Z,93256.28
2022-12-11T19:18:43.959Z,93263.13
2022-12-11T19:23:48.449Z,93269.56
2022-12-11T19:28:51.560Z,93267.22
2022-12-11T19:34:25.988Z,93265.78
2022-12-11T19:39:28.249Z,93270.66
2022-12-11T19:44:30.513Z,93274.31
2022-12-11T19:49:32.648Z,93255.19
2022-12-11T19:54:34.712Z,93302.41
2022-12-11T19:59:36.991Z,93318.22
2022-12-11T20:04:39.140Z,93339.59
2022-12-11T20:09:42.386Z,93342.69
2022-12-11T20:14:48.008Z,93343.34
2022-12-11T20:19:50.306Z,93348.66
2022-12-11T20:24:52.517Z,93354.44
2022-12-11T20:29:56.756Z,93366.72
2022-12-11T20:34:58.817Z,93366.94
2022-12-11T20:40:02.397Z,93383.53
2022-12-11T20:45:06.468Z,93394.47
2022-12-11T20:50:11.297Z,93401.75
2022-12-11T20:55:14.184Z,93400.97
2022-12-11T21:00:17.216Z,93416.78
2022-12-11T21:05:19.513Z,93412.34
2022-12-11T21:10:21.888Z,93434.22
2022-12-11T21:15:24.424Z,93417.41
2022-12-11T21:20:26.447Z,93394.47
2022-12-11T21:25:30.531Z,93432.13
2022-12-11T21:30:32.817Z,93430.88
2022-12-11T21:35:36.816Z,93444.78
2022-12-11T21:40:40.877Z,93441.81
2022-12-11T21:46:00.799Z,93456.81
2022-12-11T21:51:23.649Z,93450.28
2022-12-11T21:56:27.544Z,93468.94
2022-12-11T22:01:32.476Z,93453.34
2022-12-11T22:06:34.533Z,93457.84
2022-12-11T22:11:36.805Z,93423.34
2022-12-11T22:16:39.081Z,93422.06
2022-12-11T22:21:41.733Z,93445.19
2022-12-11T22:26:44.362Z,93447.84
2022-12-11T22:31:48.246Z,93453.16
2022-12-11T22:36:51.044Z,93472.78
2022-12-11T22:41:53.330Z,93483.16
2022-12-11T22:46:57.628Z,93489.69
2022-12-11T22:52:02.701Z,93457.72
2022-12-11T22:57:04.899Z,93495.72
2022-12-11T23:02:07.218Z,93506.78
2022-12-11T23:07:09.527Z,93521.63
2022-12-11T23:12:11.554Z,93523.38
2022-12-11T23:17:14.287Z,93535.34
2022-12-11T23:22:18.431Z,93543.78
2022-12-11T23:27:20.558Z,93537.50
2022-12-11T23:32:23.006Z,93530.00
2022-12-11T23:37:25.350Z,93524.56
2022-12-11T23:42:29.958Z,93524.81
2022-12-11T23:47:32.849Z,93529.78
2022-12-11T23:52:35.119Z,93533.56
2022-12-11T23:57:38.274Z,93546.38
